Time;durP1;ratioP1;P1;durP2;ratioP2;P2;SDS_P1;SDS_P2;PMS_P1;PMS_P2;Temp;Humidity;BMP_temperature;BMP_pressure;BME280_temperature;BME280_humidity;BME280_pressure;Samples;Min_cycle;Max_cycle;Signal;HPM_P1;HPM_P2
2024/01/05 00:00:24;;;;;;;5.23;2.57;;;;;;;;;;4970319;28;20237;-63
2024/01/05 00:02:54;;;;;;;4.23;2.20;;;;;;;;;;4970199;28;20221;-62
2024/01/05 00:05:21;;;;;;;4.60;2.40;;;;;;;;;;4970823;28;20329;-63
2024/01/05 00:07:49;;;;;;;7.50;2.17;;;;;;;;;;4970148;28;20210;-63
2024/01/05 00:10:16;;;;;;;4.57;1.80;;;;;;;;;;4970522;28;20677;-63
2024/01/05 00:12:43;;;;;;;2.50;1.70;;;;;;;;;;4970072;28;20261;-63
2024/01/05 00:15:12;;;;;;;4.37;1.93;;;;;;;;;;4970097;28;20635;-63
2024/01/05 00:17:39;;;;;;;7.77;1.80;;;;;;;;;;4969396;28;20214;-63
2024/01/05 00:20:08;;;;;;;6.83;2.10;;;;;;;;;;4966200;28;20241;-62
2024/01/05 00:22:35;;;;;;;2.20;2.00;;;;;;;;;;4969942;28;20254;-62
2024/01/05 00:25:04;;;;;;;5.37;2.17;;;;;;;;;;4969883;28;20234;-62
2024/01/05 00:27:31;;;;;;;4.70;1.80;;;;;;;;;;4970136;28;20284;-63
2024/01/05 00:29:58;;;;;;;8.13;2.70;;;;;;;;;;4970016;28;20202;-62
2024/01/05 00:32:25;;;;;;;7.97;2.47;;;;;;;;;;4969957;28;20289;-63
2024/01/05 00:34:52;;;;;;;1.70;1.60;;;;;;;;;;4969614;28;20213;-63
2024/01/05 00:37:19;;;;;;;2.87;1.80;;;;;;;;;;4970324;28;20210;-62
2024/01/05 00:39:46;;;;;;;5.93;2.00;;;;;;;;;;4969360;28;20715;-63
2024/01/05 00:42:14;;;;;;;3.80;1.60;;;;;;;;;;4970119;28;20207;-62
2024/01/05 00:44:41;;;;;;;2.80;1.50;;;;;;;;;;4970213;28;20214;-63
2024/01/05 00:47:08;;;;;;;5.60;1.70;;;;;;;;;;4970101;28;20229;-63
2024/01/05 00:49:37;;;;;;;2.57;1.43;;;;;;;;;;4970128;28;20839;-63
2024/01/05 00:52:04;;;;;;;12.27;1.70;;;;;;;;;;4969648;28;20219;-62
2024/01/05 00:54:31;;;;;;;3.23;1.47;;;;;;;;;;4969853;28;20210;-62
2024/01/05 00:56:58;;;;;;;3.00;1.30;;;;;;;;;;4969804;28;20274;-62
2024/01/05 00:59:26;;;;;;;3.63;1.70;;;;;;;;;;4969638;28;20313;-63
2024/01/05 01:01:54;;;;;;;3.50;1.33;;;;;;;;;;4969948;28;20305;-63
2024/01/05 01:04:21;;;;;;;3.27;1.50;;;;;;;;;;4969439;28;20310;-63
2024/01/05 01:06:48;;;;;;;3.43;1.63;;;;;;;;;;4969159;28;20210;-63
2024/01/05 01:09:15;;;;;;;5.07;1.50;;;;;;;;;;4969710;28;20432;-63
2024/01/05 01:11:42;;;;;;;3.87;1.50;;;;;;;;;;4969732;28;20211;-63
2024/01/05 01:14:09;;;;;;;3.47;1.60;;;;;;;;;;4969287;28;20224;-63
2024/01/05 01:16:37;;;;;;;2.70;1.53;;;;;;;;;;4969497;28;20257;-63
2024/01/05 01:19:04;;;;;;;7.73;1.50;;;;;;;;;;4965732;28;20210;-63
2024/01/05 01:21:31;;;;;;;5.00;2.00;;;;;;;;;;4968896;28;20278;-63
2024/01/05 01:23:58;;;;;;;3.90;1.40;;;;;;;;;;4969182;28;20230;-63
2024/01/05 01:26:25;;;;;;;6.17;2.63;;;;;;;;;;4969165;28;20210;-63
2024/01/05 01:28:52;;;;;;;5.03;1.93;;;;;;;;;;4969065;28;20268;-63
2024/01/05 01:31:19;;;;;;;1.63;1.50;;;;;;;;;;4969304;28;20202;-63
2024/01/05 01:33:47;;;;;;;3.00;1.67;;;;;;;;;;4966882;28;20210;-62
2024/01/05 01:36:15;;;;;;;1.70;1.60;;;;;;;;;;4969209;28;20217;-62
2024/01/05 01:38:42;;;;;;;3.03;1.60;;;;;;;;;;4968913;28;20214;-62
2024/01/05 01:41:09;;;;;;;7.63;2.40;;;;;;;;;;4968884;28;20233;-62
2024/01/05 01:43:36;;;;;;;5.10;2.30;;;;;;;;;;4966708;28;20265;-62
2024/01/05 01:46:04;;;;;;;7.83;2.13;;;;;;;;;;4968535;28;20257;-62
2024/01/05 01:48:31;;;;;;;2.83;1.80;;;;;;;;;;4968472;28;20213;-62
2024/01/05 01:50:59;;;;;;;5.50;1.97;;;;;;;;;;4968119;28;20191;-63
2024/01/05 01:53:28;;;;;;;8.23;2.47;;;;;;;;;;4967260;28;20210;-62
2024/01/05 01:55:55;;;;;;;7.80;2.37;;;;;;;;;;4968791;28;20301;-62
2024/01/05 01:58:23;;;;;;;8.20;2.27;;;;;;;;;;4968872;28;20202;-62
2024/01/05 02:00:50;;;;;;;3.50;2.67;;;;;;;;;;4969075;28;20289;-62
2024/01/05 02:03:18;;;;;;;4.03;2.07;;;;;;;;;;4969129;28;20672;-62
2024/01/05 02:05:46;;;;;;;7.70;2.70;;;;;;;;;;4969258;28;20210;-62
2024/01/05 02:08:14;;;;;;;9.77;2.60;;;;;;;;;;4968968;28;20225;-62
2024/01/05 02:10:41;;;;;;;8.17;2.80;;;;;;;;;;4969205;28;20207;-62
2024/01/05 02:13:09;;;;;;;8.30;2.80;;;;;;;;;;4969117;28;21033;-61
2024/01/05 02:15:36;;;;;;;10.03;2.73;;;;;;;;;;4968600;28;20665;-62
2024/01/05 02:18:10;;;;;;;9.63;3.10;;;;;;;;;;4968519;28;20211;-61
2024/01/05 02:20:37;;;;;;;4.20;2.77;;;;;;;;;;4967944;28;20229;-62
2024/01/05 02:23:05;;;;;;;9.20;2.63;;;;;;;;;;4968746;28;20673;-61
2024/01/05 02:25:34;;;;;;;10.07;2.90;;;;;;;;;;4981367;28;20241;-62
2024/01/05 02:28:01;;;;;;;6.93;2.47;;;;;;;;;;4968183;28;20264;-62
2024/01/05 02:30:28;;;;;;;3.57;2.20;;;;;;;;;;4968356;28;20199;-62
2024/01/05 02:32:55;;;;;;;7.40;2.70;;;;;;;;;;4968038;28;20277;-62
2024/01/05 02:35:22;;;;;;;8.30;2.27;;;;;;;;;;4968272;28;20214;-62
2024/01/05 02:37:49;;;;;;;8.53;2.47;;;;;;;;;;4968100;28;20206;-61
2024/01/05 02:40:16;;;;;;;3.60;1.90;;;;;;;;;;4968660;28;20288;-62
2024/01/05 02:42:44;;;;;;;10.67;2.93;;;;;;;;;;4974145;28;20669;-62
2024/01/05 02:45:11;;;;;;;3.67;2.20;;;;;;;;;;4975114;28;20350;-61
2024/01/05 02:47:38;;;;;;;6.90;2.47;;;;;;;;;;4973850;28;20825;-62
2024/01/05 02:50:06;;;;;;;5.67;2.70;;;;;;;;;;4974312;28;20353;-61
2024/01/05 02:52:33;;;;;;;6.53;2.63;;;;;;;;;;4973988;28;20249;-62
2024/01/05 02:55:00;;;;;;;5.53;2.83;;;;;;;;;;4974626;28;20612;-62
2024/01/05 02:57:27;;;;;;;7.33;2.83;;;;;;;;;;4974612;28;20206;-62
2024/01/05 02:59:55;;;;;;;8.37;2.80;;;;;;;;;;4974748;28;20230;-61
2024/01/05 03:02:22;;;;;;;5.83;2.67;;;;;;;;;;4974485;28;20210;-61
2024/01/05 03:04:51;;;;;;;5.83;2.53;;;;;;;;;;4974713;28;20261;-62
2024/01/05 03:07:18;;;;;;;4.27;2.80;;;;;;;;;;4974254;28;20289;-62
2024/01/05 03:09:45;;;;;;;4.33;2.23;;;;;;;;;;4974753;28;20214;-61
2024/01/05 03:12:12;;;;;;;7.50;2.70;;;;;;;;;;4973951;28;20242;-61
2024/01/05 03:14:39;;;;;;;4.50;2.57;;;;;;;;;;4974023;28;20236;-61
2024/01/05 03:17:08;;;;;;;7.37;2.43;;;;;;;;;;4972806;28;20194;-62
2024/01/05 03:19:35;;;;;;;2.57;1.90;;;;;;;;;;4974617;28;20221;-61
2024/01/05 03:22:02;;;;;;;8.23;2.47;;;;;;;;;;4974473;28;20234;-61
2024/01/05 03:24:29;;;;;;;6.67;2.33;;;;;;;;;;4974471;28;20317;-61
2024/01/05 03:26:56;;;;;;;4.67;2.50;;;;;;;;;;4974032;28;20210;-62
2024/01/05 03:29:23;;;;;;;3.20;2.50;;;;;;;;;;4974445;28;20238;-61
2024/01/05 03:31:50;;;;;;;6.93;3.00;;;;;;;;;;4973173;28;20237;-61
2024/01/05 03:34:18;;;;;;;9.13;2.70;;;;;;;;;;4973578;28;20213;-61
2024/01/05 03:36:45;;;;;;;5.37;2.50;;;;;;;;;;4974511;28;20207;-61
2024/01/05 03:39:12;;;;;;;4.63;3.20;;;;;;;;;;4974634;28;20553;-61
2024/01/05 03:41:39;;;;;;;6.90;2.70;;;;;;;;;;4973885;28;20229;-62
2024/01/05 03:44:06;;;;;;;3.50;2.50;;;;;;;;;;4974505;28;20206;-61
2024/01/05 03:46:33;;;;;;;8.17;3.10;;;;;;;;;;4974506;28;20534;-61
2024/01/05 03:49:00;;;;;;;4.67;2.53;;;;;;;;;;4973429;28;20217;-61
2024/01/05 03:51:29;;;;;;;2.27;2.10;;;;;;;;;;4973984;28;20198;-61
2024/01/05 03:53:56;;;;;;;8.57;2.50;;;;;;;;;;4970210;28;20221;-62
2024/01/05 03:56:23;;;;;;;2.77;2.17;;;;;;;;;;4970817;28;20810;-62
2024/01/05 03:58:50;;;;;;;4.07;2.00;;;;;;;;;;4971087;28;20269;-62
2024/01/05 04:01:17;;;;;;;4.60;2.27;;;;;;;;;;4970549;28;20235;-61
2024/01/05 04:03:44;;;;;;;3.23;2.60;;;;;;;;;;4970837;28;20702;-61
2024/01/05 04:06:19;;;;;;;4.97;2.53;;;;;;;;;;4970406;28;20265;-61
2024/01/05 04:08:47;;;;;;;5.03;2.47;;;;;;;;;;4957641;28;20205;-62
2024/01/05 04:11:20;;;;;;;2.30;2.10;;;;;;;;;;4970730;28;20204;-61
2024/01/05 04:13:47;;;;;;;5.53;2.03;;;;;;;;;;4970791;28;20229;-61
2024/01/05 04:16:14;;;;;;;5.03;2.30;;;;;;;;;;4970427;28;20681;-60
2024/01/05 04:18:41;;;;;;;2.23;2.03;;;;;;;;;;4966948;28;20272;-61
2024/01/05 04:21:09;;;;;;;2.37;2.03;;;;;;;;;;4970681;28;20428;-61
2024/01/05 04:23:36;;;;;;;7.63;2.20;;;;;;;;;;4970671;28;20234;-62
2024/01/05 04:26:05;;;;;;;4.20;2.17;;;;;;;;;;4970347;28;20211;-62
2024/01/05 04:28:32;;;;;;;3.47;2.47;;;;;;;;;;4970430;28;20221;-61
2024/01/05 04:30:59;;;;;;;4.37;2.10;;;;;;;;;;4970267;28;20293;-62
2024/01/05 04:33:26;;;;;;;5.10;2.00;;;;;;;;;;4970310;28;20214;-62
2024/01/05 04:35:53;;;;;;;9.97;2.27;;;;;;;;;;4970388;28;20198;-62
2024/01/05 04:38:20;;;;;;;2.67;1.77;;;;;;;;;;4970103;28;20219;-61
2024/01/05 04:40:47;;;;;;;3.77;1.73;;;;;;;;;;4969509;28;20238;-62
2024/01/05 04:43:16;;;;;;;7.53;2.17;;;;;;;;;;4970318;28;20211;-62
2024/01/05 04:45:43;;;;;;;4.23;2.03;;;;;;;;;;4970417;28;20218;-62
2024/01/05 04:48:10;;;;;;;5.53;2.00;;;;;;;;;;4969877;28;20602;-62
2024/01/05 04:50:37;;;;;;;4.57;1.70;;;;;;;;;;4969766;28;20203;-62
2024/01/05 04:53:04;;;;;;;6.37;2.13;;;;;;;;;;4970037;28;20206;-62
2024/01/05 04:55:31;;;;;;;7.10;2.17;;;;;;;;;;4957992;28;20211;-62
2024/01/05 04:57:58;;;;;;;4.03;2.20;;;;;;;;;;4969673;28;20625;-62
2024/01/05 05:00:26;;;;;;;9.50;1.93;;;;;;;;;;4969856;28;20214;-62
2024/01/05 05:02:53;;;;;;;3.93;1.93;;;;;;;;;;4969332;28;20631;-62
2024/01/05 05:05:22;;;;;;;3.63;1.90;;;;;;;;;;4969445;28;20217;-62
2024/01/05 05:07:49;;;;;;;6.33;1.83;;;;;;;;;;4969607;28;20669;-62
2024/01/05 05:10:16;;;;;;;7.17;2.40;;;;;;;;;;4969698;28;20218;-62
2024/01/05 05:12:43;;;;;;;8.27;2.17;;;;;;;;;;4968610;28;20790;-62
2024/01/05 05:15:10;;;;;;;3.73;1.80;;;;;;;;;;4970094;28;20214;-62
2024/01/05 05:17:39;;;;;;;3.17;1.90;;;;;;;;;;4969685;28;20301;-62
2024/01/05 05:20:06;;;;;;;3.40;2.10;;;;;;;;;;4968707;28;20229;-61
2024/01/05 05:22:33;;;;;;;3.03;2.03;;;;;;;;;;4969243;28;20288;-61
2024/01/05 05:25:00;;;;;;;4.57;1.80;;;;;;;;;;4969213;28;20855;-63
2024/01/05 05:27:27;;;;;;;3.53;2.07;;;;;;;;;;4969166;28;20253;-62
2024/01/05 05:29:54;;;;;;;6.77;2.03;;;;;;;;;;4969737;28;20590;-62
2024/01/05 05:32:21;;;;;;;7.10;2.87;;;;;;;;;;4969270;28;20202;-62
2024/01/05 05:34:50;;;;;;;5.23;2.20;;;;;;;;;;4969027;28;20204;-62
2024/01/05 05:37:17;;;;;;;6.83;1.80;;;;;;;;;;4969255;28;20206;-62
2024/01/05 05:39:44;;;;;;;3.57;1.80;;;;;;;;;;4969783;28;20276;-61
2024/01/05 05:42:11;;;;;;;3.07;1.63;;;;;;;;;;4968727;28;20277;-62
2024/01/05 05:44:38;;;;;;;6.67;2.17;;;;;;;;;;4969174;28;20682;-62
2024/01/05 05:47:05;;;;;;;7.63;1.80;;;;;;;;;;4969046;28;20261;-61
2024/01/05 05:49:32;;;;;;;4.50;2.00;;;;;;;;;;4969028;28;20213;-62
2024/01/05 05:52:00;;;;;;;7.83;2.47;;;;;;;;;;4968721;28;20203;-61
2024/01/05 05:54:27;;;;;;;3.50;1.80;;;;;;;;;;4968593;28;20317;-61
2024/01/05 05:56:54;;;;;;;6.00;2.17;;;;;;;;;;4968603;28;20218;-61
2024/01/05 05:59:21;;;;;;;4.13;2.17;;;;;;;;;;4969184;28;20257;-61
2024/01/05 06:01:48;;;;;;;7.10;2.03;;;;;;;;;;4968818;28;20704;-62
2024/01/05 06:04:16;;;;;;;2.90;1.67;;;;;;;;;;4968714;28;20218;-61
2024/01/05 06:06:43;;;;;;;3.17;1.93;;;;;;;;;;4969096;28;20662;-61
2024/01/05 06:09:14;;;;;;;5.67;2.33;;;;;;;;;;4968509;28;20621;-61
2024/01/05 06:11:41;;;;;;;6.03;2.63;;;;;;;;;;4968874;28;20265;-61
2024/01/05 06:14:08;;;;;;;5.53;2.33;;;;;;;;;;4967899;28;20300;-62
2024/01/05 06:16:35;;;;;;;2.30;1.80;;;;;;;;;;4968076;28;20837;-62
2024/01/05 06:19:02;;;;;;;4.03;1.97;;;;;;;;;;4968507;28;20210;-61
2024/01/05 06:21:29;;;;;;;5.83;2.20;;;;;;;;;;4968173;28;20289;-62
2024/01/05 06:23:56;;;;;;;3.90;2.33;;;;;;;;;;4966003;28;20292;-62
2024/01/05 06:26:25;;;;;;;12.43;2.63;;;;;;;;;;4968527;28;20978;-62
2024/01/05 06:28:52;;;;;;;6.27;2.30;;;;;;;;;;4968542;28;20273;-62
2024/01/05 06:31:19;;;;;;;7.57;2.43;;;;;;;;;;4969002;28;20214;-61
2024/01/05 06:33:46;;;;;;;6.53;2.00;;;;;;;;;;4967832;28;20202;-62
2024/01/05 06:36:13;;;;;;;3.20;2.17;;;;;;;;;;4968533;28;20214;-62
2024/01/05 06:38:40;;;;;;;6.00;2.20;;;;;;;;;;4968407;28;20229;-62
2024/01/05 06:41:07;;;;;;;2.80;1.90;;;;;;;;;;4968650;28;20230;-61
2024/01/05 06:43:35;;;;;;;6.23;1.70;;;;;;;;;;4968428;28;20218;-62
2024/01/05 06:46:02;;;;;;;8.13;1.83;;;;;;;;;;4968441;28;20813;-62
2024/01/05 06:48:29;;;;;;;4.90;2.57;;;;;;;;;;4968196;28;20207;-61
2024/01/05 06:50:56;;;;;;;6.33;2.37;;;;;;;;;;4968415;28;20210;-62
2024/01/05 06:53:23;;;;;;;6.53;1.63;;;;;;;;;;4968219;28;20262;-62
2024/01/05 06:55:50;;;;;;;6.77;2.27;;;;;;;;;;4968266;28;20257;-62
2024/01/05 06:58:17;;;;;;;7.40;2.30;;;;;;;;;;4968065;28;20685;-62
2024/01/05 07:00:46;;;;;;;3.77;1.83;;;;;;;;;;4968227;28;20215;-62
2024/01/05 07:03:13;;;;;;;7.07;1.93;;;;;;;;;;4967835;28;20299;-62
2024/01/05 07:05:40;;;;;;;5.40;1.77;;;;;;;;;;4968222;28;20210;-61
2024/01/05 07:08:07;;;;;;;1.63;1.37;;;;;;;;;;4968175;28;20206;-62
2024/01/05 07:10:34;;;;;;;3.73;2.00;;;;;;;;;;4967970;28;20241;-62
2024/01/05 07:13:01;;;;;;;5.83;2.00;;;;;;;;;;4967814;28;20202;-61
2024/01/05 07:15:29;;;;;;;5.67;2.00;;;;;;;;;;4968482;28;20265;-62
2024/01/05 07:17:58;;;;;;;4.53;2.50;;;;;;;;;;4966760;28;20199;-62
2024/01/05 07:20:25;;;;;;;4.20;1.83;;;;;;;;;;4967988;28;20305;-61
2024/01/05 07:22:52;;;;;;;4.33;2.50;;;;;;;;;;4967851;28;20226;-61
2024/01/05 07:25:19;;;;;;;3.67;1.90;;;;;;;;;;4967582;28;20289;-61
2024/01/05 07:27:46;;;;;;;4.30;2.20;;;;;;;;;;4968857;28;20207;-62
2024/01/05 07:30:13;;;;;;;4.37;1.80;;;;;;;;;;4971717;28;20213;-61
2024/01/05 07:32:40;;;;;;;5.70;2.07;;;;;;;;;;4971350;28;20211;-62
2024/01/05 07:35:10;;;;;;;2.60;1.97;;;;;;;;;;4971282;28;20297;-61
2024/01/05 07:37:39;;;;;;;2.93;1.93;;;;;;;;;;4969727;28;20210;-61
2024/01/05 07:40:06;;;;;;;7.17;2.23;;;;;;;;;;4970718;28;20268;-63
2024/01/05 07:42:33;;;;;;;2.07;1.93;;;;;;;;;;4971007;28;20936;-63
2024/01/05 07:45:00;;;;;;;7.93;2.23;;;;;;;;;;4971020;28;20202;-64
2024/01/05 07:47:27;;;;;;;2.23;2.00;;;;;;;;;;4971069;28;20226;-61
2024/01/05 07:49:54;;;;;;;3.20;2.00;;;;;;;;;;4970455;28;20207;-62
2024/01/05 07:52:22;;;;;;;5.33;1.90;;;;;;;;;;4970606;28;20211;-62
2024/01/05 07:54:49;;;;;;;3.37;1.53;;;;;;;;;;4969984;28;20343;-63
2024/01/05 07:57:16;;;;;;;3.20;1.80;;;;;;;;;;4973869;28;20205;-62
2024/01/05 07:59:43;;;;;;;3.27;1.77;;;;;;;;;;4973081;28;20210;-62
2024/01/05 08:02:11;;;;;;;3.63;1.93;;;;;;;;;;4971094;28;20276;-63
2024/01/05 08:04:38;;;;;;;6.57;2.03;;;;;;;;;;4983614;28;20237;-63
2024/01/05 08:07:05;;;;;;;4.50;1.90;;;;;;;;;;4990506;28;20214;-63
2024/01/05 08:09:34;;;;;;;3.70;2.03;;;;;;;;;;4975785;28;20203;-63
2024/01/05 08:12:01;;;;;;;6.63;2.30;;;;;;;;;;4968941;28;20207;-63
2024/01/05 08:14:28;;;;;;;3.63;2.20;;;;;;;;;;4970905;28;20210;-63
2024/01/05 08:16:55;;;;;;;3.70;1.70;;;;;;;;;;4970596;28;20708;-63
2024/01/05 08:19:22;;;;;;;2.83;1.50;;;;;;;;;;4970492;28;20213;-64
2024/01/05 08:21:49;;;;;;;5.00;1.67;;;;;;;;;;4970409;28;20285;-64
2024/01/05 08:24:16;;;;;;;3.40;1.80;;;;;;;;;;4970299;28;20617;-64
2024/01/05 08:26:45;;;;;;;5.67;1.90;;;;;;;;;;4965713;28;20271;-63
2024/01/05 08:29:12;;;;;;;3.77;2.30;;;;;;;;;;4960874;28;20570;-64
2024/01/05 08:31:40;;;;;;;4.37;1.60;;;;;;;;;;4970428;28;20265;-63
2024/01/05 08:34:07;;;;;;;4.17;2.10;;;;;;;;;;4969788;28;20713;-64
2024/01/05 08:36:34;;;;;;;5.17;1.40;;;;;;;;;;4970559;28;20248;-63
2024/01/05 08:39:01;;;;;;;7.67;2.67;;;;;;;;;;4969776;28;21008;-64
2024/01/05 08:41:29;;;;;;;9.17;2.53;;;;;;;;;;4972959;28;20285;-63
2024/01/05 08:43:57;;;;;;;4.63;2.27;;;;;;;;;;4977069;28;20202;-64
2024/01/05 08:46:24;;;;;;;4.40;1.93;;;;;;;;;;4968133;28;20698;-63
2024/01/05 08:48:51;;;;;;;3.53;2.10;;;;;;;;;;4969365;28;20207;-63
2024/01/05 08:51:19;;;;;;;4.13;2.43;;;;;;;;;;4984100;28;20209;-63
2024/01/05 08:53:46;;;;;;;5.67;2.23;;;;;;;;;;4978716;28;20225;-63
2024/01/05 08:56:13;;;;;;;9.03;2.60;;;;;;;;;;4969678;28;20214;-64
2024/01/05 08:58:41;;;;;;;7.33;2.10;;;;;;;;;;4969807;28;20285;-63
2024/01/05 09:01:09;;;;;;;4.00;2.23;;;;;;;;;;4969033;28;20214;-63
2024/01/05 09:03:36;;;;;;;3.87;2.40;;;;;;;;;;4969127;28;20375;-63
2024/01/05 09:06:03;;;;;;;4.13;2.17;;;;;;;;;;4970320;28;20202;-63
2024/01/05 09:08:30;;;;;;;4.50;1.90;;;;;;;;;;4969508;28;20297;-63
2024/01/05 09:10:57;;;;;;;3.70;1.87;;;;;;;;;;4969864;28;20211;-63
2024/01/05 09:13:24;;;;;;;4.33;2.17;;;;;;;;;;4969486;28;20225;-61
2024/01/05 09:15:51;;;;;;;3.03;2.00;;;;;;;;;;4969497;28;20203;-61
2024/01/05 09:18:19;;;;;;;3.83;2.20;;;;;;;;;;4969083;28;20214;-64
2024/01/05 09:20:46;;;;;;;2.07;1.90;;;;;;;;;;4969262;28;20224;-64
2024/01/05 09:23:14;;;;;;;3.80;1.73;;;;;;;;;;4969449;28;20566;-64
2024/01/05 09:25:41;;;;;;;2.10;1.90;;;;;;;;;;4984202;28;20296;-62
2024/01/05 09:28:08;;;;;;;5.33;1.90;;;;;;;;;;4970681;28;20206;-63
2024/01/05 09:30:35;;;;;;;5.50;1.90;;;;;;;;;;4968944;28;20229;-62
2024/01/05 09:33:03;;;;;;;5.83;2.07;;;;;;;;;;4968003;28;20211;-62
2024/01/05 09:35:32;;;;;;;6.47;2.27;;;;;;;;;;4971064;28;20583;-62
2024/01/05 09:37:59;;;;;;;1.83;1.67;;;;;;;;;;4972745;28;20845;-62
2024/01/05 09:40:26;;;;;;;3.93;1.73;;;;;;;;;;4968728;28;20253;-61
2024/01/05 09:42:54;;;;;;;1.83;1.30;;;;;;;;;;4968570;28;20258;-64
2024/01/05 09:45:22;;;;;;;4.17;2.13;;;;;;;;;;4969032;28;20211;-61
2024/01/05 09:47:50;;;;;;;5.83;2.10;;;;;;;;;;4969075;28;20210;-59
2024/01/05 09:50:18;;;;;;;6.17;1.80;;;;;;;;;;4968411;28;20682;-64
2024/01/05 09:52:46;;;;;;;5.00;1.90;;;;;;;;;;4968330;28;20291;-63
2024/01/05 09:55:13;;;;;;;3.07;1.87;;;;;;;;;;4968276;28;20218;-63
2024/01/05 09:57:41;;;;;;;1.93;1.77;;;;;;;;;;4968446;28;20202;-62
2024/01/05 10:00:12;;;;;;;3.23;1.90;;;;;;;;;;4968363;28;20210;-60
2024/01/05 10:02:42;;;;;;;2.13;1.60;;;;;;;;;;4968372;28;20224;-61
2024/01/05 10:05:10;;;;;;;2.63;1.40;;;;;;;;;;4968226;28;20293;-60
2024/01/05 10:07:42;;;;;;;3.27;1.50;;;;;;;;;;4968519;28;20237;-62
2024/01/05 10:10:12;;;;;;;2.77;1.80;;;;;;;;;;4968544;28;20672;-62
2024/01/05 10:12:39;;;;;;;2.27;2.10;;;;;;;;;;4968612;28;20285;-63
2024/01/05 10:15:06;;;;;;;4.30;1.50;;;;;;;;;;4967299;28;20210;-63
2024/01/05 10:17:34;;;;;;;4.37;2.07;;;;;;;;;;4968215;28;20413;-62
2024/01/05 10:20:14;;;;;;;3.80;1.77;;;;;;;;;;4976567;28;20301;-63
2024/01/05 10:22:41;;;;;;;3.73;1.83;;;;;;;;;;4954193;28;20234;-64
2024/01/05 10:25:21;;;;;;;2.10;1.27;;;;;;;;;;4971017;28;20296;-65
2024/01/05 10:27:49;;;;;;;2.57;2.30;;;;;;;;;;4985704;28;20209;-64
2024/01/05 10:30:27;;;;;;;3.13;1.90;;;;;;;;;;4987316;28;20883;-65
2024/01/05 10:33:03;;;;;;;2.77;2.33;;;;;;;;;;4987541;28;20201;-65
2024/01/05 10:35:30;;;;;;;2.13;1.70;;;;;;;;;;4987733;28;20698;-65
2024/01/05 10:38:04;;;;;;;4.50;1.97;;;;;;;;;;4987637;28;20595;-65
2024/01/05 10:40:32;;;;;;;2.30;2.10;;;;;;;;;;4987581;28;20296;-65
2024/01/05 10:43:08;;;;;;;3.67;1.80;;;;;;;;;;4987319;28;20324;-65
2024/01/05 10:45:36;;;;;;;5.30;1.73;;;;;;;;;;4970245;28;20244;-65
2024/01/05 10:48:04;;;;;;;4.03;2.20;;;;;;;;;;4960397;28;20203;-64
2024/01/05 10:50:32;;;;;;;2.43;1.53;;;;;;;;;;4967990;28;20766;-65
2024/01/05 10:53:00;;;;;;;3.07;1.70;;;;;;;;;;4968129;28;20202;-65
2024/01/05 10:55:28;;;;;;;1.87;1.70;;;;;;;;;;4968082;28;20439;-65
2024/01/05 10:57:56;;;;;;;2.87;1.63;;;;;;;;;;4968446;28;20210;-65
2024/01/05 11:00:24;;;;;;;3.53;1.57;;;;;;;;;;4967930;28;20668;-65
2024/01/05 11:02:52;;;;;;;1.83;1.57;;;;;;;;;;4969071;28;20812;-65
2024/01/05 11:05:20;;;;;;;2.83;1.73;;;;;;;;;;4972238;28;20214;-65
2024/01/05 11:07:48;;;;;;;2.37;1.57;;;;;;;;;;4972131;28;20688;-65
2024/01/05 11:10:23;;;;;;;2.43;1.50;;;;;;;;;;4971857;28;20277;-65
2024/01/05 11:13:09;;;;;;;2.90;1.30;;;;;;;;;;4971830;28;20301;-65
2024/01/05 11:15:43;;;;;;;2.67;1.43;;;;;;;;;;4971786;28;20885;-65
2024/01/05 11:18:19;;;;;;;3.90;1.70;;;;;;;;;;4971602;28;20213;-65
2024/01/05 11:20:56;;;;;;;3.70;1.43;;;;;;;;;;4971358;28;20209;-65
2024/01/05 11:23:24;;;;;;;2.47;1.10;;;;;;;;;;4971639;28;20245;-65
2024/01/05 11:25:54;;;;;;;5.10;1.30;;;;;;;;;;4971737;28;20630;-65
2024/01/05 11:28:34;;;;;;;1.70;1.40;;;;;;;;;;4971289;28;20416;-65
2024/01/05 11:31:01;;;;;;;2.50;1.23;;;;;;;;;;4971914;28;20214;-65
2024/01/05 11:33:44;;;;;;;3.97;1.50;;;;;;;;;;4971545;28;20202;-65
2024/01/05 11:36:12;;;;;;;1.33;1.00;;;;;;;;;;4970986;28;20768;-64
2024/01/05 11:38:43;;;;;;;0.93;0.90;;;;;;;;;;4971577;28;20913;-65
2024/01/05 11:41:17;;;;;;;4.27;1.17;;;;;;;;;;4971250;28;20250;-65
2024/01/05 11:43:45;;;;;;;2.93;1.20;;;;;;;;;;4971161;28;20227;-65
2024/01/05 11:46:12;;;;;;;4.03;1.20;;;;;;;;;;4970530;28;20206;-65
2024/01/05 11:48:45;;;;;;;1.30;1.20;;;;;;;;;;4970593;28;20207;-65
2024/01/05 11:51:13;;;;;;;2.47;1.43;;;;;;;;;;4971240;28;20210;-65
2024/01/05 11:53:40;;;;;;;1.60;1.00;;;;;;;;;;4971065;28;20214;-64
2024/01/05 11:56:10;;;;;;;1.77;1.63;;;;;;;;;;4970835;28;20195;-65
2024/01/05 11:58:38;;;;;;;2.20;1.00;;;;;;;;;;4970971;28;20203;-64
2024/01/05 12:01:09;;;;;;;0.90;0.90;;;;;;;;;;4971041;28;20402;-65
2024/01/05 12:03:38;;;;;;;2.40;0.93;;;;;;;;;;4971121;28;20226;-65
2024/01/05 12:06:05;;;;;;;2.37;0.97;;;;;;;;;;4970636;28;20210;-65
2024/01/05 12:08:32;;;;;;;6.83;1.57;;;;;;;;;;4971077;28;20211;-64
2024/01/05 12:11:00;;;;;;;1.57;0.83;;;;;;;;;;4970895;28;20202;-65
2024/01/05 12:13:29;;;;;;;2.57;0.93;;;;;;;;;;4971516;28;20233;-64
2024/01/05 12:15:57;;;;;;;0.90;0.90;;;;;;;;;;4968164;28;20644;-65
2024/01/05 12:18:26;;;;;;;5.67;1.03;;;;;;;;;;4970231;28;20253;-66
2024/01/05 12:20:54;;;;;;;1.20;1.10;;;;;;;;;;4962957;28;20239;-64
2024/01/05 12:23:21;;;;;;;4.63;1.00;;;;;;;;;;4969866;28;20322;-65
2024/01/05 12:25:58;;;;;;;1.17;0.67;;;;;;;;;;4970531;28;20253;-65
2024/01/05 12:28:25;;;;;;;0.60;0.60;;;;;;;;;;4969666;28;20202;-64
2024/01/05 12:30:52;;;;;;;1.63;0.77;;;;;;;;;;4970413;28;20695;-63
2024/01/05 12:33:19;;;;;;;2.90;0.73;;;;;;;;;;4969778;28;20256;-63
2024/01/05 12:35:49;;;;;;;2.13;1.07;;;;;;;;;;4968681;28;20684;-64
2024/01/05 12:38:22;;;;;;;1.13;0.80;;;;;;;;;;4970302;28;20621;-64
2024/01/05 12:40:49;;;;;;;1.27;0.90;;;;;;;;;;4970055;28;20213;-64
2024/01/05 12:43:16;;;;;;;5.97;0.80;;;;;;;;;;4969753;28;20222;-64
2024/01/05 12:45:43;;;;;;;1.00;0.60;;;;;;;;;;4969809;28;20301;-63
2024/01/05 12:48:11;;;;;;;2.10;0.57;;;;;;;;;;4969863;28;20223;-64
2024/01/05 12:50:38;;;;;;;0.70;0.50;;;;;;;;;;4969380;28;20642;-64
2024/01/05 12:53:18;;;;;;;0.60;0.60;;;;;;;;;;4970177;28;20215;-64
2024/01/05 12:55:45;;;;;;;1.00;0.80;;;;;;;;;;4961429;28;20602;-64
2024/01/05 12:58:12;;;;;;;3.10;0.77;;;;;;;;;;4970136;28;20269;-64
2024/01/05 13:00:42;;;;;;;1.33;0.60;;;;;;;;;;4969775;28;20581;-64
2024/01/05 13:03:14;;;;;;;0.60;0.40;;;;;;;;;;4968765;28;20238;-64
2024/01/05 13:05:41;;;;;;;0.70;0.57;;;;;;;;;;4969528;28;20338;-64
2024/01/05 13:08:08;;;;;;;2.47;0.40;;;;;;;;;;4970306;28;20331;-64
2024/01/05 13:10:36;;;;;;;0.77;0.50;;;;;;;;;;4969975;28;20222;-64
2024/01/05 13:13:03;;;;;;;0.93;0.70;;;;;;;;;;4969729;28;20309;-64
2024/01/05 13:15:30;;;;;;;0.57;0.57;;;;;;;;;;4969428;28;20285;-64
2024/01/05 13:17:59;;;;;;;0.80;0.50;;;;;;;;;;4969786;28;20210;-64
2024/01/05 13:20:26;;;;;;;2.70;0.67;;;;;;;;;;4968226;28;20221;-64
2024/01/05 13:22:55;;;;;;;0.57;0.57;;;;;;;;;;4976226;28;20229;-64
2024/01/05 13:25:23;;;;;;;0.87;0.67;;;;;;;;;;4979223;28;20265;-63
2024/01/05 13:27:51;;;;;;;2.47;0.50;;;;;;;;;;4968678;28;20215;-64
2024/01/05 13:30:18;;;;;;;0.90;0.60;;;;;;;;;;4969378;28;20636;-64
2024/01/05 13:32:46;;;;;;;2.13;0.47;;;;;;;;;;4969140;28;20743;-64
2024/01/05 13:35:13;;;;;;;1.40;0.50;;;;;;;;;;4969165;28;20221;-64
2024/01/05 13:37:41;;;;;;;0.93;0.40;;;;;;;;;;4969296;28;20211;-61
2024/01/05 13:40:08;;;;;;;1.10;0.60;;;;;;;;;;4968487;28;20241;-68
2024/01/05 13:42:36;;;;;;;0.93;0.53;;;;;;;;;;4969531;28;20210;-64
2024/01/05 13:45:06;;;;;;;1.03;0.70;;;;;;;;;;4969124;28;20226;-64
2024/01/05 13:47:33;;;;;;;2.47;0.50;;;;;;;;;;4968665;28;20229;-64
2024/01/05 13:50:00;;;;;;;1.40;0.50;;;;;;;;;;4968869;28;20261;-64
2024/01/05 13:52:27;;;;;;;1.30;0.57;;;;;;;;;;4969039;28;20211;-65
2024/01/05 13:54:54;;;;;;;1.07;0.70;;;;;;;;;;4968486;28;20202;-64
2024/01/05 13:57:22;;;;;;;2.50;0.93;;;;;;;;;;4968406;28;20281;-64
2024/01/05 13:59:49;;;;;;;2.23;0.73;;;;;;;;;;4968790;28;20449;-64
2024/01/05 14:02:19;;;;;;;2.93;0.70;;;;;;;;;;4969079;28;20210;-64
2024/01/05 14:04:46;;;;;;;2.43;0.70;;;;;;;;;;4968645;28;20312;-62
2024/01/05 14:07:13;;;;;;;1.07;0.90;;;;;;;;;;4964696;28;20294;-64
2024/01/05 14:09:41;;;;;;;3.53;0.73;;;;;;;;;;4959410;28;20214;-65
2024/01/05 14:12:09;;;;;;;1.23;0.80;;;;;;;;;;4964891;28;20307;-63
2024/01/05 14:14:36;;;;;;;1.20;1.20;;;;;;;;;;4967900;28;20202;-63
2024/01/05 14:17:03;;;;;;;1.83;1.73;;;;;;;;;;4967489;28;20447;-64
2024/01/05 14:19:32;;;;;;;3.63;1.20;;;;;;;;;;4966951;28;20211;-64
2024/01/05 14:22:00;;;;;;;4.00;1.20;;;;;;;;;;4963787;28;20230;-63
2024/01/05 14:24:27;;;;;;;2.17;0.80;;;;;;;;;;4968102;28;20242;-64
2024/01/05 14:26:54;;;;;;;1.70;0.70;;;;;;;;;;4967977;28;20202;-63
2024/01/05 14:29:21;;;;;;;0.90;0.90;;;;;;;;;;4964593;28;20268;-63
2024/01/05 14:31:48;;;;;;;4.33;1.00;;;;;;;;;;4967132;28;20210;-63
2024/01/05 14:34:15;;;;;;;3.30;1.13;;;;;;;;;;4966796;28;20322;-62
2024/01/05 14:36:44;;;;;;;1.60;0.70;;;;;;;;;;4966718;28;20596;-62
2024/01/05 14:39:11;;;;;;;2.20;1.00;;;;;;;;;;4967270;28;20206;-61
2024/01/05 14:41:38;;;;;;;0.53;0.50;;;;;;;;;;4967004;28;20214;-62
2024/01/05 14:44:05;;;;;;;2.50;0.63;;;;;;;;;;4967852;28;20236;-63
2024/01/05 14:46:32;;;;;;;1.07;0.57;;;;;;;;;;4969679;28;20207;-62